createdAt,value
2018-09-30T00:01:59.502Z,55.90
2018-09-30T00:04:27.784Z,55.80
2018-09-30T00:06:56.365Z,55.70
2018-09-30T00:09:30.512Z,55.70
2018-09-30T00:12:01.430Z,55.80
2018-09-30T00:14:29.961Z,55.90
2018-09-30T00:16:58.791Z,55.80
2018-09-30T00:19:27.140Z,55.90
2018-09-30T00:21:55.642Z,56.00
2018-09-30T00:24:29.327Z,56.00
2018-09-30T00:27:28.336Z,56.50
2018-09-30T00:29:56.765Z,56.00
2018-09-30T00:32:25.078Z,56.10
2018-09-30T00:34:53.296Z,55.90
2018-09-30T00:37:21.731Z,56.20
2018-09-30T00:39:50.098Z,56.30
2018-09-30T00:42:18.408Z,56.30
2018-09-30T00:44:46.693Z,56.30
2018-09-30T00:47:15.094Z,56.70
2018-09-30T00:49:43.410Z,56.30
2018-09-30T00:52:11.777Z,56.40
2018-09-30T00:54:40.204Z,56.50
2018-09-30T00:57:08.490Z,56.50
2018-09-30T00:59:36.921Z,56.50
2018-09-30T01:02:05.416Z,56.40
2018-09-30T01:04:34.214Z,56.10
2018-09-30T01:07:02.628Z,56.50
2018-09-30T01:09:31.024Z,56.50
2018-09-30T01:11:59.436Z,56.40
2018-09-30T01:14:27.661Z,56.50
2018-09-30T01:16:55.882Z,56.50
2018-09-30T01:19:24.120Z,56.50
2018-09-30T01:21:52.379Z,56.60
2018-09-30T01:24:20.659Z,56.60
2018-09-30T01:26:48.995Z,56.70
2018-09-30T01:29:17.555Z,56.70
2018-09-30T01:31:45.874Z,56.70
2018-09-30T01:34:14.090Z,56.80
2018-09-30T01:36:42.394Z,56.90
2018-09-30T01:39:10.754Z,56.80
2018-09-30T01:41:39.139Z,56.90
2018-09-30T01:44:07.487Z,57.00
2018-09-30T01:46:36.433Z,56.90
2018-09-30T01:49:04.629Z,56.90
2018-09-30T01:51:32.889Z,56.80
2018-09-30T01:54:01.199Z,56.80
2018-09-30T01:56:29.521Z,56.70
2018-09-30T01:58:57.764Z,56.60
2018-09-30T02:01:26.254Z,56.60
2018-09-30T02:03:54.523Z,56.50
2018-09-30T02:06:23.097Z,56.40
2018-09-30T02:08:51.686Z,55.90
2018-09-30T02:11:20.140Z,56.40
2018-09-30T02:13:48.481Z,56.60
2018-09-30T02:16:16.732Z,56.50
2018-09-30T02:18:45.177Z,56.50
2018-09-30T02:21:13.651Z,56.60
2018-09-30T02:23:41.988Z,56.40
2018-09-30T02:26:10.194Z,56.60
2018-09-30T02:28:38.524Z,56.50
2018-09-30T02:31:07.489Z,56.50
2018-09-30T02:33:35.883Z,56.50
2018-09-30T02:36:04.087Z,56.60
2018-09-30T02:38:32.378Z,56.60
2018-09-30T02:41:00.637Z,56.70
2018-09-30T02:43:28.816Z,56.70
2018-09-30T02:45:57.197Z,56.60
2018-09-30T02:48:25.506Z,56.50
2018-09-30T02:50:53.743Z,56.50
2018-09-30T02:53:22.261Z,56.40
2018-09-30T02:55:51.089Z,57.10
2018-09-30T02:58:19.586Z,56.50
2018-09-30T03:00:47.967Z,56.60
2018-09-30T03:03:16.243Z,56.70
2018-09-30T03:05:44.570Z,56.80
2018-09-30T03:08:18.326Z,56.70
2018-09-30T03:10:46.687Z,56.70
2018-09-30T03:13:14.992Z,56.80
2018-09-30T03:15:43.252Z,56.90
2018-09-30T03:18:11.748Z,57.10
2018-09-30T03:20:40.091Z,57.00
2018-09-30T03:23:08.343Z,57.00
2018-09-30T03:25:36.616Z,57.00
2018-09-30T03:28:05.002Z,57.00
2018-09-30T03:30:33.322Z,57.10
2018-09-30T03:33:01.761Z,57.00
2018-09-30T03:35:29.936Z,57.10
2018-09-30T03:37:58.200Z,56.90
2018-09-30T03:40:26.607Z,57.00
2018-09-30T03:42:54.965Z,57.00
2018-09-30T03:45:23.257Z,57.00
2018-09-30T03:47:51.783Z,57.10
2018-09-30T03:50:19.998Z,57.20
2018-09-30T03:52:48.454Z,57.30
2018-09-30T03:55:16.816Z,57.40
2018-09-30T03:57:45.092Z,57.40
2018-09-30T04:00:13.529Z,57.30
2018-09-30T04:02:42.204Z,57.20
2018-09-30T04:05:10.419Z,57.30
2018-09-30T04:07:38.745Z,57.30
2018-09-30T04:10:07.210Z,57.10
2018-09-30T04:12:35.486Z,57.00
2018-09-30T04:15:03.836Z,57.10
2018-09-30T04:17:33.151Z,57.10
2018-09-30T04:20:01.651Z,57.10
2018-09-30T04:22:30.055Z,57.20
2018-09-30T04:24:58.676Z,57.10
2018-09-30T04:27:27.057Z,57.00
2018-09-30T04:29:55.410Z,57.10
2018-09-30T04:32:23.953Z,57.10
2018-09-30T04:34:52.482Z,57.20
2018-09-30T04:37:21.498Z,57.00
2018-09-30T04:39:50.016Z,56.80
2018-09-30T04:42:18.595Z,56.80
2018-09-30T04:44:46.926Z,57.10
2018-09-30T04:47:15.374Z,57.10
2018-09-30T04:49:44.326Z,57.20
2018-09-30T04:52:12.827Z,57.10
2018-09-30T04:54:41.465Z,56.90
2018-09-30T04:57:09.805Z,57.00
2018-09-30T04:59:38.093Z,56.90
2018-09-30T05:02:06.680Z,56.50
2018-09-30T05:04:34.938Z,56.90
2018-09-30T05:07:04.925Z,56.90
2018-09-30T05:09:33.322Z,56.80
2018-09-30T05:12:01.550Z,56.90
2018-09-30T05:14:30.393Z,57.70
2018-09-30T05:16:58.813Z,57.00
2018-09-30T05:19:27.114Z,57.00
2018-09-30T05:21:55.639Z,56.90
2018-09-30T05:24:23.914Z,56.90
2018-09-30T05:26:52.292Z,56.90
2018-09-30T05:29:20.583Z,57.00
2018-09-30T05:31:49.084Z,56.70
2018-09-30T05:34:17.324Z,57.00
2018-09-30T05:36:52.132Z,56.90
2018-09-30T05:39:20.540Z,57.00
2018-09-30T05:41:48.824Z,56.90
2018-09-30T05:44:17.688Z,56.90
2018-09-30T05:46:45.986Z,57.00
2018-09-30T05:49:14.541Z,56.90
2018-09-30T05:51:43.428Z,56.90
2018-09-30T05:54:11.770Z,56.80
2018-09-30T05:56:40.258Z,57.00
2018-09-30T05:59:08.538Z,57.80
2018-09-30T06:01:37.059Z,57.70
2018-09-30T06:04:05.855Z,57.30
2018-09-30T06:06:33.927Z,57.00
2018-09-30T06:09:05.124Z,57.60
2018-09-30T06:11:33.736Z,57.30
2018-09-30T06:14:02.350Z,57.30
2018-09-30T06:16:30.564Z,57.30
2018-09-30T06:18:58.952Z,57.00
2018-09-30T06:21:27.229Z,57.00
2018-09-30T06:23:55.640Z,57.20
2018-09-30T06:26:23.989Z,57.00
2018-09-30T06:28:52.250Z,57.00
2018-09-30T06:31:20.512Z,57.10
2018-09-30T06:33:48.782Z,57.10
2018-09-30T06:36:17.063Z,57.00
2018-09-30T06:38:45.465Z,56.80
2018-09-30T06:41:14.190Z,56.90
2018-09-30T06:43:42.560Z,57.10
2018-09-30T06:46:10.850Z,57.00
2018-09-30T06:48:39.294Z,56.90
2018-09-30T06:51:07.638Z,57.00
2018-09-30T06:53:36.059Z,57.10
2018-09-30T06:56:05.191Z,57.00
2018-09-30T06:58:33.464Z,56.80
2018-09-30T07:01:02.020Z,56.70
2018-09-30T07:03:30.393Z,56.90
2018-09-30T07:05:58.914Z,56.60
2018-09-30T07:08:27.292Z,56.70
2018-09-30T07:10:55.805Z,56.50
2018-09-30T07:13:24.422Z,56.40
2018-09-30T07:15:53.035Z,56.40
2018-09-30T07:18:21.453Z,56.30
2018-09-30T07:20:49.878Z,56.30
2018-09-30T07:23:18.383Z,56.20
2018-09-30T07:25:46.745Z,56.20
2018-09-30T07:28:15.233Z,56.00
2018-09-30T07:30:43.555Z,56.00
2018-09-30T07:33:11.920Z,55.90
2018-09-30T07:35:40.351Z,56.20
2018-09-30T07:38:08.864Z,56.60
2018-09-30T07:40:37.613Z,55.70
2018-09-30T07:43:06.130Z,55.70
2018-09-30T07:45:34.657Z,55.70
2018-09-30T07:48:03.139Z,55.50
2018-09-30T07:50:31.459Z,55.80
2018-09-30T07:52:59.707Z,55.80
2018-09-30T07:55:28.252Z,55.90
2018-09-30T07:57:56.641Z,55.70
2018-09-30T08:00:24.880Z,55.70
2018-09-30T08:02:53.453Z,55.90
2018-09-30T08:05:22.049Z,55.90
2018-09-30T08:07:50.376Z,56.60
2018-09-30T08:10:18.755Z,56.20
2018-09-30T08:12:47.151Z,56.00
2018-09-30T08:15:15.577Z,56.00
2018-09-30T08:17:43.985Z,55.70
2018-09-30T08:20:12.386Z,56.20
2018-09-30T08:22:40.708Z,56.20
2018-09-30T08:25:13.383Z,56.50
2018-09-30T08:27:41.953Z,56.70
2018-09-30T08:32:45.274Z,56.10
2018-09-30T08:35:13.620Z,56.00
2018-09-30T08:37:47.364Z,55.90
2018-09-30T08:40:19.981Z,55.50
2018-09-30T08:42:48.390Z,55.50
2018-09-30T08:45:16.924Z,55.50
2018-09-30T08:47:45.489Z,55.30
2018-09-30T08:50:13.818Z,55.60
2018-09-30T08:52:42.218Z,55.90
2018-09-30T08:55:11.324Z,55.80
2018-09-30T08:57:39.707Z,55.80
2018-09-30T09:00:08.580Z,55.90
2018-09-30T09:02:43.657Z,55.70
2018-09-30T09:05:12.144Z,55.60
2018-09-30T09:07:40.578Z,55.50
2018-09-30T09:10:09.410Z,55.40
2018-09-30T09:12:37.830Z,55.30
2018-09-30T09:15:06.519Z,55.30
2018-09-30T09:17:35.143Z,55.60
2018-09-30T09:20:03.654Z,55.40
2018-09-30T09:22:32.427Z,55.40
2018-09-30T09:25:00.911Z,55.10
2018-09-30T09:27:29.944Z,55.10
2018-09-30T09:29:59.603Z,55.10
2018-09-30T09:32:27.849Z,54.90
2018-09-30T09:34:56.851Z,54.90
2018-09-30T09:37:25.208Z,54.90
2018-09-30T09:39:53.567Z,54.70
2018-09-30T09:42:22.035Z,54.40
2018-09-30T09:44:50.388Z,54.40
2018-09-30T09:47:23.481Z,54.60
2018-09-30T09:49:51.996Z,53.70
2018-09-30T09:52:20.581Z,53.60
2018-09-30T09:54:48.875Z,53.00
2018-09-30T09:57:17.396Z,53.40
2018-09-30T09:59:46.008Z,53.00
2018-09-30T10:02:14.582Z,52.90
2018-09-30T10:04:43.275Z,52.30
2018-09-30T10:07:13.243Z,52.60
2018-09-30T10:09:41.825Z,52.80
2018-09-30T10:12:10.296Z,53.10
2018-09-30T10:14:38.688Z,53.70
2018-09-30T10:17:07.409Z,53.90
2018-09-30T10:19:35.892Z,54.30
2018-09-30T10:22:05.591Z,54.40
2018-09-30T10:24:34.328Z,54.70
2018-09-30T10:27:02.861Z,54.90
2018-09-30T10:29:34.125Z,55.20
2018-09-30T10:32:02.813Z,54.50
2018-09-30T10:34:31.248Z,54.40
2018-09-30T10:36:59.675Z,54.60
2018-09-30T10:40:04.939Z,53.70
2018-09-30T10:42:33.911Z,54.00
2018-09-30T10:45:02.386Z,53.40
2018-09-30T10:47:30.774Z,52.80
2018-09-30T10:49:59.586Z,52.50
2018-09-30T10:52:28.025Z,52.20
2018-09-30T10:54:59.256Z,52.70
2018-09-30T10:57:27.881Z,52.30
2018-09-30T10:59:56.707Z,51.50
2018-09-30T11:05:30.335Z,51.60
2018-09-30T11:07:59.471Z,52.20
2018-09-30T11:10:37.614Z,52.40
2018-09-30T11:13:06.205Z,52.20
2018-09-30T11:15:34.887Z,52.60
2018-09-30T11:18:03.408Z,51.10
2018-09-30T11:20:32.071Z,50.50
2018-09-30T11:23:00.475Z,49.90
2018-09-30T11:25:29.066Z,50.80
2018-09-30T11:27:58.196Z,50.50
2018-09-30T11:30:26.729Z,49.20
2018-09-30T11:32:55.073Z,48.00
2018-09-30T11:35:24.547Z,49.10
2018-09-30T11:37:53.599Z,49.30
2018-09-30T11:40:22.178Z,49.20
2018-09-30T11:42:50.737Z,49.40
2018-09-30T11:45:19.650Z,50.00
2018-09-30T11:47:48.469Z,49.70
2018-09-30T11:50:17.215Z,49.00
2018-09-30T11:52:45.779Z,49.80
2018-09-30T11:55:14.312Z,48.90
2018-09-30T11:57:43.771Z,47.20
2018-09-30T12:00:12.443Z,48.60
2018-09-30T12:02:40.961Z,47.50
2018-09-30T12:05:09.993Z,47.60
2018-09-30T12:07:38.727Z,47.10
2018-09-30T12:10:08.266Z,47.30
2018-09-30T12:12:36.666Z,47.20
2018-09-30T12:15:05.216Z,46.10
2018-09-30T12:17:34.691Z,46.60
2018-09-30T12:20:03.274Z,46.90
2018-09-30T12:22:31.658Z,46.40
2018-09-30T12:25:00.018Z,46.10
2018-09-30T12:27:28.815Z,46.20
2018-09-30T12:29:57.655Z,47.20
2018-09-30T12:32:26.134Z,47.50
2018-09-30T12:34:54.635Z,48.30
2018-09-30T12:37:23.375Z,46.50
2018-09-30T12:39:51.990Z,46.60
2018-09-30T12:42:20.485Z,46.70
2018-09-30T12:44:48.958Z,46.20
2018-09-30T12:47:17.747Z,47.10
2018-09-30T12:49:46.279Z,47.40
2018-09-30T12:52:15.069Z,46.40
2018-09-30T12:54:44.892Z,46.20
2018-09-30T12:57:13.597Z,47.00
2018-09-30T12:59:42.032Z,47.40
2018-09-30T13:02:14.690Z,47.80
2018-09-30T13:04:43.364Z,46.50
2018-09-30T13:07:12.018Z,47.30
2018-09-30T13:09:40.413Z,47.70
2018-09-30T13:12:08.888Z,47.80
2018-09-30T13:14:37.795Z,46.90
2018-09-30T13:17:06.376Z,47.10
2018-09-30T13:19:34.695Z,47.00
2018-09-30T13:22:03.281Z,46.40
2018-09-30T13:24:32.416Z,45.80
2018-09-30T13:27:02.509Z,45.50
2018-09-30T13:29:31.367Z,45.40
2018-09-30T13:31:59.883Z,46.30
2018-09-30T13:34:28.277Z,46.80
2018-09-30T13:36:56.767Z,46.90
2018-09-30T13:39:25.583Z,46.60
2018-09-30T13:41:54.084Z,46.90
2018-09-30T13:44:22.632Z,46.50
2018-09-30T13:46:51.377Z,46.40
2018-09-30T13:49:20.002Z,46.80
2018-09-30T13:51:53.292Z,46.80
2018-09-30T13:54:21.943Z,46.60
2018-09-30T13:56:50.604Z,46.60
2018-09-30T13:59:19.425Z,45.90
2018-09-30T14:01:47.825Z,45.20
2018-09-30T14:04:16.388Z,45.60
2018-09-30T14:06:44.833Z,45.10
2018-09-30T14:09:13.769Z,45.30
2018-09-30T14:11:42.313Z,44.00
2018-09-30T14:14:11.570Z,43.70
2018-09-30T14:16:40.133Z,43.60
2018-09-30T14:19:08.977Z,43.90
2018-09-30T14:21:37.634Z,43.70
2018-09-30T14:24:06.661Z,43.20
2018-09-30T14:26:34.973Z,43.40
2018-09-30T14:29:04.332Z,44.60
2018-09-30T14:31:32.818Z,43.70
2018-09-30T14:34:01.879Z,43.10
2018-09-30T14:36:30.775Z,43.10
2018-09-30T14:38:59.863Z,43.80
2018-09-30T14:41:28.438Z,44.50
2018-09-30T14:43:57.031Z,44.70
2018-09-30T14:46:28.889Z,44.00
2018-09-30T14:48:57.364Z,44.00
2018-09-30T14:51:26.079Z,43.70
2018-09-30T14:53:54.540Z,43.20
2018-09-30T14:56:22.874Z,43.10
2018-09-30T14:58:51.234Z,42.70
2018-09-30T15:01:19.672Z,43.30
2018-09-30T15:03:48.852Z,42.90
2018-09-30T15:06:17.911Z,43.50
2018-09-30T15:08:46.433Z,43.10
2018-09-30T15:11:14.862Z,42.30
2018-09-30T15:13:43.634Z,42.40
2018-09-30T15:16:12.159Z,43.00
2018-09-30T15:18:40.524Z,43.40
2018-09-30T15:21:09.245Z,43.50
2018-09-30T15:23:39.169Z,43.60
2018-09-30T15:26:07.467Z,43.90
2018-09-30T15:28:36.015Z,43.50
2018-09-30T15:31:04.404Z,43.60
2018-09-30T15:33:32.770Z,43.70
2018-09-30T15:36:01.362Z,43.80
2018-09-30T15:38:30.292Z,44.20
2018-09-30T15:40:58.990Z,44.10
2018-09-30T15:43:28.059Z,43.40
2018-09-30T15:45:56.425Z,43.50
2018-09-30T15:48:25.726Z,43.80
2018-09-30T15:50:53.993Z,43.60
2018-09-30T15:53:22.572Z,43.90
2018-09-30T15:55:50.849Z,44.40
2018-09-30T15:58:19.757Z,45.00
2018-09-30T16:00:48.203Z,45.50
2018-09-30T16:03:17.131Z,43.60
2018-09-30T16:05:45.701Z,44.30
2018-09-30T16:08:14.139Z,44.60
2018-09-30T16:10:42.593Z,44.10
2018-09-30T16:13:11.114Z,44.20
2018-09-30T16:15:39.426Z,44.30
2018-09-30T16:18:08.342Z,44.40
2018-09-30T16:20:36.831Z,44.70
2018-09-30T16:23:05.453Z,44.80
2018-09-30T16:25:33.931Z,44.80
2018-09-30T16:28:03.006Z,44.80
2018-09-30T16:30:31.673Z,44.90
2018-09-30T16:33:00.131Z,45.20
2018-09-30T16:35:28.650Z,45.30
2018-09-30T16:37:57.253Z,45.20
2018-09-30T16:40:25.789Z,45.40
2018-09-30T16:42:54.118Z,45.40
2018-09-30T16:45:22.669Z,45.30
2018-09-30T16:47:51.150Z,45.40
2018-09-30T16:50:19.558Z,45.70
2018-09-30T16:52:48.823Z,45.80
2018-09-30T16:55:17.397Z,46.00
2018-09-30T16:57:46.133Z,46.30
2018-09-30T17:00:14.519Z,46.50
2018-09-30T17:02:42.793Z,46.60
2018-09-30T17:05:11.280Z,46.70
2018-09-30T17:07:39.714Z,46.70
2018-09-30T17:10:08.472Z,46.70
2018-09-30T17:12:36.830Z,46.70
2018-09-30T17:15:07.088Z,46.80
2018-09-30T17:17:35.714Z,46.80
2018-09-30T17:20:04.465Z,46.90
2018-09-30T17:22:32.943Z,47.00
2018-09-30T17:25:01.660Z,47.10
2018-09-30T17:27:30.208Z,47.00
2018-09-30T17:29:58.636Z,47.40
2018-09-30T17:32:27.522Z,47.60
2018-09-30T17:34:56.052Z,47.80
2018-09-30T17:37:27.813Z,48.00
2018-09-30T17:39:56.506Z,48.10
2018-09-30T17:42:25.213Z,48.40
2018-09-30T17:44:53.684Z,48.60
2018-09-30T17:47:22.438Z,48.50
2018-09-30T17:49:51.454Z,48.50
2018-09-30T17:52:19.830Z,49.10
2018-09-30T17:54:48.298Z,49.10
2018-09-30T17:57:17.109Z,49.10
2018-09-30T17:59:45.560Z,49.20
2018-09-30T18:02:13.836Z,49.40
2018-09-30T18:04:42.339Z,49.50
2018-09-30T18:07:10.738Z,49.70
2018-09-30T18:09:40.220Z,49.60
2018-09-30T18:12:09.016Z,49.70
2018-09-30T18:14:38.062Z,49.80
2018-09-30T18:17:06.766Z,49.70
2018-09-30T18:19:35.056Z,49.80
2018-09-30T18:22:03.405Z,50.10
2018-09-30T18:24:31.988Z,50.10
2018-09-30T18:27:07.121Z,50.50
2018-09-30T18:29:35.629Z,50.70
2018-09-30T18:32:04.448Z,50.80
2018-09-30T18:34:32.944Z,51.20
2018-09-30T18:37:01.490Z,51.20
2018-09-30T18:39:29.809Z,51.70
2018-09-30T18:41:58.122Z,52.00
2018-09-30T18:44:26.443Z,52.00
2018-09-30T18:46:55.019Z,52.00
2018-09-30T18:49:23.548Z,52.10
2018-09-30T18:51:52.014Z,52.20
2018-09-30T18:54:21.144Z,52.30
2018-09-30T18:56:49.782Z,52.20
2018-09-30T18:59:18.170Z,52.10
2018-09-30T19:01:46.903Z,51.90
2018-09-30T19:04:15.287Z,51.80
2018-09-30T19:06:44.582Z,51.60
2018-09-30T19:09:13.755Z,51.30
2018-09-30T19:11:42.140Z,51.20
2018-09-30T19:14:10.596Z,51.10
2018-09-30T19:16:40.427Z,51.30
2018-09-30T19:19:08.981Z,51.60
2018-09-30T19:24:15.818Z,51.80
2018-09-30T19:26:44.594Z,51.80
2018-09-30T19:29:13.251Z,51.90
2018-09-30T19:31:41.658Z,51.70
2018-09-30T19:34:10.102Z,51.70
2018-09-30T19:36:38.723Z,51.70
2018-09-30T19:39:09.273Z,51.70
2018-09-30T19:41:37.982Z,51.60
2018-09-30T19:44:06.589Z,51.70
2018-09-30T19:46:35.114Z,51.90
2018-09-30T19:49:04.579Z,51.80
2018-09-30T19:51:32.916Z,52.10
2018-09-30T19:54:01.562Z,51.90
2018-09-30T19:56:29.982Z,51.90
2018-09-30T19:58:58.330Z,51.80
2018-09-30T20:01:26.777Z,51.60
2018-09-30T20:03:55.088Z,51.50
2018-09-30T20:06:23.667Z,51.30
2018-09-30T20:08:52.265Z,51.20
2018-09-30T20:11:20.823Z,51.10
2018-09-30T20:13:49.449Z,51.20
2018-09-30T20:16:17.798Z,51.30
2018-09-30T20:18:46.508Z,51.40
2018-09-30T20:21:14.785Z,51.60
2018-09-30T20:23:43.561Z,51.70
2018-09-30T20:26:11.865Z,52.20
2018-09-30T20:28:40.505Z,52.30
2018-09-30T20:31:08.885Z,52.40
2018-09-30T20:33:37.361Z,52.50
2018-09-30T20:36:05.879Z,52.50
2018-09-30T20:38:34.697Z,52.40
2018-09-30T20:41:03.545Z,52.40
2018-09-30T20:43:32.807Z,52.50
2018-09-30T20:46:01.368Z,52.40
2018-09-30T20:48:29.844Z,52.50
2018-09-30T20:50:58.252Z,52.50
2018-09-30T20:53:27.464Z,52.50
2018-09-30T20:55:56.531Z,52.50
2018-09-30T20:58:24.902Z,52.50
2018-09-30T21:00:54.455Z,52.70
2018-09-30T21:03:23.080Z,52.50
2018-09-30T21:06:14.465Z,52.60
2018-09-30T21:08:43.643Z,52.50
2018-09-30T21:11:11.942Z,52.60
2018-09-30T21:13:40.517Z,52.80
2018-09-30T21:16:09.079Z,53.20
2018-09-30T21:18:37.610Z,53.40
2018-09-30T21:21:06.024Z,53.50
2018-09-30T21:23:34.464Z,53.60
2018-09-30T21:26:02.776Z,54.10
2018-09-30T21:28:31.047Z,54.20
2018-09-30T21:30:59.305Z,54.70
2018-09-30T21:33:27.700Z,54.60
2018-09-30T21:35:56.079Z,54.80
2018-09-30T21:38:24.411Z,54.90
2018-09-30T21:40:52.764Z,55.00
2018-09-30T21:43:22.176Z,55.30
2018-09-30T21:45:50.494Z,55.30
2018-09-30T21:48:19.810Z,55.40
2018-09-30T21:50:48.147Z,55.50
2018-09-30T21:53:17.283Z,55.70
2018-09-30T21:55:45.689Z,55.80
2018-09-30T21:58:14.015Z,55.80
2018-09-30T22:00:43.489Z,55.90
2018-09-30T22:03:13.003Z,56.00
2018-09-30T22:05:41.314Z,56.00
2018-09-30T22:08:10.952Z,56.00
2018-09-30T22:10:40.593Z,55.90
2018-09-30T22:13:09.287Z,55.90
2018-09-30T22:15:37.593Z,55.90
2018-09-30T22:18:06.164Z,56.00
2018-09-30T22:20:34.553Z,56.00
2018-09-30T22:23:02.983Z,56.00
2018-09-30T22:25:31.257Z,56.00
2018-09-30T22:27:59.775Z,56.00
2018-09-30T22:30:28.065Z,56.10
2018-09-30T22:32:56.590Z,56.20
2018-09-30T22:35:25.002Z,56.20
2018-09-30T22:37:53.241Z,56.40
2018-09-30T22:40:21.582Z,56.50
2018-09-30T22:42:49.826Z,56.40
2018-09-30T22:45:18.235Z,56.70
2018-09-30T22:47:46.505Z,56.80
2018-09-30T22:50:15.686Z,56.90
2018-09-30T22:52:44.029Z,57.00
2018-09-30T22:55:12.317Z,57.10
2018-09-30T22:57:40.677Z,57.20
2018-09-30T23:00:09.034Z,57.30
2018-09-30T23:02:37.369Z,57.30
2018-09-30T23:05:06.819Z,57.50
2018-09-30T23:07:35.237Z,57.60
2018-09-30T23:10:04.423Z,57.70
2018-09-30T23:12:32.777Z,57.90
2018-09-30T23:15:01.062Z,58.00
2018-09-30T23:17:29.473Z,58.00
2018-09-30T23:19:57.773Z,58.10
2018-09-30T23:22:26.028Z,58.20
2018-09-30T23:24:54.396Z,58.30
2018-09-30T23:27:23.099Z,58.30
2018-09-30T23:29:52.649Z,58.40
2018-09-30T23:32:20.902Z,58.50
2018-09-30T23:34:49.134Z,58.60
2018-09-30T23:37:17.384Z,58.40
2018-09-30T23:39:45.583Z,58.30
2018-09-30T23:42:13.784Z,58.30
2018-09-30T23:44:42.411Z,58.20
2018-09-30T23:47:10.694Z,58.00
2018-09-30T23:49:39.693Z,57.90
2018-09-30T23:52:07.947Z,57.80
2018-09-30T23:54:36.131Z,57.80
2018-09-30T23:57:04.354Z,57.60
2018-09-30T23:59:32.676Z,57.50
